createdAt,value
2018-09-18T00:00:20.376Z,16.40
2018-09-18T00:05:24.531Z,16.40
2018-09-18T00:10:28.272Z,16.30
2018-09-18T00:15:32.316Z,16.30
2018-09-18T00:20:36.136Z,16.30
2018-09-18T00:25:39.955Z,16.20
2018-09-18T00:30:44.068Z,16.20
2018-09-18T00:35:47.821Z,16.20
2018-09-18T00:40:52.354Z,16.10
2018-09-18T00:45:56.134Z,16.10
2018-09-18T00:51:00.598Z,16.00
2018-09-18T00:56:04.457Z,16.00
2018-09-18T01:01:08.527Z,16.00
2018-09-18T01:06:12.978Z,15.90
2018-09-18T01:11:17.001Z,15.90
2018-09-18T01:16:20.940Z,15.90
2018-09-18T01:21:24.644Z,15.80
2018-09-18T01:26:28.614Z,15.80
2018-09-18T01:31:32.883Z,15.80
2018-09-18T01:36:36.480Z,15.70
2018-09-18T01:41:40.591Z,15.60
2018-09-18T01:46:44.809Z,15.60
2018-09-18T01:51:48.565Z,15.60
2018-09-18T01:56:52.364Z,15.60
2018-09-18T02:01:56.288Z,15.60
2018-09-18T02:07:00.239Z,15.60
2018-09-18T02:12:04.082Z,15.60
2018-09-18T02:17:07.991Z,15.50
2018-09-18T02:22:12.284Z,15.60
2018-09-18T02:27:16.347Z,15.60
2018-09-18T02:32:20.311Z,15.60
2018-09-18T02:37:24.171Z,15.60
2018-09-18T02:42:28.080Z,15.70
2018-09-18T02:47:32.245Z,15.80
2018-09-18T02:52:36.102Z,15.80
2018-09-18T02:57:40.024Z,15.80
2018-09-18T03:02:44.440Z,15.90
2018-09-18T03:07:48.467Z,16.00
2018-09-18T03:12:52.742Z,16.10
2018-09-18T03:17:56.768Z,16.30
2018-09-18T03:23:00.655Z,16.40
2018-09-18T03:28:04.507Z,16.50
2018-09-18T03:33:08.746Z,16.50
2018-09-18T03:38:12.786Z,16.50
2018-09-18T03:43:16.553Z,16.60
2018-09-18T03:48:20.225Z,16.60
2018-09-18T03:53:24.175Z,16.60
2018-09-18T04:31:32.374Z,16.60
2018-09-18T04:36:36.213Z,16.80
2018-09-18T04:41:39.939Z,17.10
2018-09-18T04:46:43.907Z,17.30
2018-09-18T04:51:47.636Z,17.60
2018-09-18T04:56:52.050Z,17.80
2018-09-18T05:01:56.083Z,17.90
2018-09-18T05:12:32.423Z,18.20
2018-09-18T05:17:36.003Z,18.30
2018-09-18T05:22:40.353Z,18.50
2018-09-18T05:27:54.468Z,18.60
2018-09-18T05:32:58.143Z,18.70
2018-09-18T05:38:01.864Z,18.70
2018-09-18T05:43:05.540Z,18.80
2018-09-18T05:48:13.426Z,18.90
2018-09-18T05:53:17.336Z,19.00
2018-09-18T05:58:21.374Z,19.00
2018-09-18T06:03:24.992Z,19.10
2018-09-18T06:08:28.919Z,19.10
2018-09-18T06:13:33.093Z,19.20
2018-09-18T06:18:37.061Z,19.20
2018-09-18T06:23:41.239Z,19.30
2018-09-18T06:28:45.044Z,19.30
2018-09-18T06:33:48.904Z,19.30
2018-09-18T06:39:12.222Z,19.30
2018-09-18T06:49:53.619Z,19.20
2018-09-18T06:54:57.589Z,19.30
2018-09-18T07:00:01.396Z,19.40
2018-09-18T07:05:05.534Z,19.50
2018-09-18T07:10:09.628Z,19.70
2018-09-18T07:15:13.695Z,19.80
2018-09-18T07:20:25.559Z,19.90
2018-09-18T07:25:29.249Z,20.10
2018-09-18T07:30:33.571Z,20.30
2018-09-18T07:35:37.536Z,20.40
2018-09-18T07:40:41.567Z,20.50
2018-09-18T07:45:45.685Z,20.70
2018-09-18T07:50:49.575Z,20.90
2018-09-18T07:55:53.407Z,21.00
2018-09-18T08:00:57.402Z,21.10
2018-09-18T08:06:01.527Z,21.30
2018-09-18T08:11:05.403Z,21.40
2018-09-18T08:16:09.279Z,21.50
2018-09-18T08:21:13.641Z,21.60
2018-09-18T08:26:17.582Z,21.70
2018-09-18T08:31:21.755Z,21.90
2018-09-18T08:36:25.563Z,22.00
2018-09-18T08:41:29.753Z,22.20
2018-09-18T08:46:33.638Z,22.40
2018-09-18T08:51:37.659Z,22.50
2018-09-18T08:56:41.655Z,22.60
2018-09-18T09:01:45.667Z,22.70
2018-09-18T09:06:49.348Z,22.90
2018-09-18T09:11:53.156Z,23.10
2018-09-18T09:17:04.657Z,23.20
2018-09-18T09:22:08.427Z,23.30
2018-09-18T09:27:12.381Z,23.50
2018-09-18T09:32:16.230Z,23.60
2018-09-18T09:37:20.045Z,23.80
2018-09-18T09:42:23.796Z,24.00
2018-09-18T09:47:27.614Z,24.10
2018-09-18T09:52:31.604Z,24.30
2018-09-18T09:57:35.404Z,24.50
2018-09-18T10:02:44.418Z,24.70
2018-09-18T10:07:48.159Z,24.90
2018-09-18T10:12:51.806Z,25.10
2018-09-18T10:18:15.571Z,25.20
2018-09-18T10:23:19.414Z,25.40
2018-09-18T10:28:23.023Z,25.60
2018-09-18T10:33:26.710Z,25.70
2018-09-18T10:38:30.915Z,25.90
2018-09-18T10:43:34.715Z,26.10
2018-09-18T10:48:53.449Z,26.20
2018-09-18T10:53:57.276Z,26.40
2018-09-18T10:59:03.156Z,26.50
2018-09-18T11:04:06.917Z,26.60
2018-09-18T11:09:33.266Z,26.80
2018-09-18T11:14:36.999Z,26.90
2018-09-18T11:19:40.646Z,27.00
2018-09-18T11:24:44.410Z,27.10
2018-09-18T11:29:48.068Z,27.30
2018-09-18T11:34:51.779Z,27.40
2018-09-18T11:39:55.415Z,27.50
2018-09-18T11:44:59.227Z,27.60
2018-09-18T11:50:03.024Z,27.70
2018-09-18T11:55:06.915Z,27.90
2018-09-18T12:00:11.198Z,28.10
2018-09-18T12:05:15.396Z,28.20
2018-09-18T12:10:19.469Z,28.30
2018-09-18T12:15:23.313Z,28.40
2018-09-18T12:20:27.268Z,28.50
2018-09-18T12:25:31.081Z,28.70
2018-09-18T12:30:34.999Z,28.80
2018-09-18T12:35:38.766Z,29.00
2018-09-18T12:40:42.564Z,29.10
2018-09-18T12:45:46.185Z,29.30
2018-09-18T12:50:49.946Z,29.30
2018-09-18T12:55:54.059Z,29.40
2018-09-18T13:00:57.740Z,29.50
2018-09-18T13:06:03.688Z,29.60
2018-09-18T13:11:07.569Z,29.70
2018-09-18T13:16:11.556Z,29.90
2018-09-18T13:21:15.201Z,30.00
2018-09-18T13:26:18.959Z,30.10
2018-09-18T13:31:22.841Z,30.20
2018-09-18T13:36:26.568Z,30.20
2018-09-18T13:41:30.771Z,30.30
2018-09-18T13:46:34.601Z,30.40
2018-09-18T13:51:38.335Z,30.50
2018-09-18T13:56:42.044Z,30.50
2018-09-18T14:01:45.924Z,30.50
2018-09-18T14:06:49.343Z,30.60
2018-09-18T14:11:53.023Z,30.60
2018-09-18T14:17:06.850Z,30.70
2018-09-18T14:22:10.688Z,30.70
2018-09-18T14:27:14.515Z,30.80
2018-09-18T14:32:18.162Z,30.80
2018-09-18T14:37:21.847Z,30.80
2018-09-18T14:42:25.671Z,30.80
2018-09-18T14:47:29.555Z,30.80
2018-09-18T14:52:33.526Z,30.80
2018-09-18T14:57:51.085Z,30.80
2018-09-18T15:02:54.976Z,30.70
2018-09-18T15:07:58.552Z,30.70
2018-09-18T15:13:02.150Z,30.60
2018-09-18T15:18:06.001Z,30.60
2018-09-18T15:23:09.795Z,30.60
2018-09-18T15:28:13.521Z,30.50
2018-09-18T15:33:17.275Z,30.40
2018-09-18T15:38:23.265Z,30.40
2018-09-18T15:43:27.059Z,30.30
2018-09-18T15:48:31.072Z,30.10
2018-09-18T15:53:35.015Z,30.00
2018-09-18T15:58:38.943Z,29.80
2018-09-18T16:03:42.966Z,29.60
2018-09-18T16:08:46.685Z,29.50
2018-09-18T16:13:50.547Z,29.30
2018-09-18T16:19:14.299Z,29.10
2018-09-18T16:24:18.220Z,29.00
2018-09-18T16:29:23.948Z,28.90
2018-09-18T16:34:27.777Z,28.80
2018-09-18T16:44:59.919Z,28.60
2018-09-18T16:50:04.214Z,28.50
2018-09-18T16:55:08.018Z,28.40
2018-09-18T17:00:11.679Z,28.30
2018-09-18T17:05:15.473Z,28.20
2018-09-18T17:10:19.422Z,28.10
2018-09-18T17:15:23.361Z,28.00
2018-09-18T17:20:27.236Z,27.90
2018-09-18T17:25:30.905Z,27.80
2018-09-18T17:30:35.266Z,27.70
2018-09-18T17:35:39.039Z,27.60
2018-09-18T17:40:43.418Z,27.50
2018-09-18T17:45:47.716Z,27.40
2018-09-18T17:50:51.740Z,27.30
2018-09-18T17:55:55.418Z,27.20
2018-09-18T18:00:59.047Z,27.10
2018-09-18T18:06:02.663Z,27.00
2018-09-18T18:11:06.270Z,26.80
2018-09-18T18:16:10.111Z,26.70
2018-09-18T18:21:13.835Z,26.60
2018-09-18T18:26:17.768Z,26.50
2018-09-18T18:31:21.742Z,26.50
2018-09-18T18:36:25.456Z,26.40
2018-09-18T18:41:29.216Z,26.30
2018-09-18T18:46:32.916Z,26.30
2018-09-18T18:51:36.509Z,26.20
2018-09-18T18:56:41.020Z,26.10
2018-09-18T19:01:45.012Z,26.00
2018-09-18T19:06:48.792Z,25.90
2018-09-18T19:11:52.549Z,25.80
2018-09-18T19:16:56.537Z,25.70
2018-09-18T19:22:00.346Z,25.60
2018-09-18T19:27:04.523Z,25.60
2018-09-18T19:32:08.940Z,25.50
2018-09-18T19:37:12.831Z,25.40
2018-09-18T19:42:16.702Z,25.30
2018-09-18T19:47:20.477Z,25.20
2018-09-18T19:52:24.475Z,25.10
2018-09-18T19:57:28.190Z,25.10
2018-09-18T20:02:32.070Z,24.90
2018-09-18T20:07:36.071Z,24.80
2018-09-18T20:12:40.017Z,24.60
2018-09-18T20:17:43.799Z,24.50
2018-09-18T20:22:47.533Z,24.40
2018-09-18T20:28:14.029Z,24.30
2018-09-18T20:33:17.853Z,24.20
2018-09-18T20:38:21.727Z,23.90
2018-09-18T20:43:25.586Z,23.80
2018-09-18T20:48:29.908Z,23.60
2018-09-18T20:53:34.313Z,23.40
2018-09-18T21:04:22.422Z,23.10
2018-09-18T21:09:26.364Z,23.00
2018-09-18T21:14:30.214Z,22.80
2018-09-18T21:26:14.119Z,22.60
2018-09-18T21:31:18.021Z,22.50
2018-09-18T21:36:21.628Z,22.30
2018-09-18T21:41:25.614Z,22.10
2018-09-18T21:46:29.747Z,22.00
2018-09-18T21:51:34.041Z,22.00
2018-09-18T21:56:37.998Z,21.90
2018-09-18T22:01:41.877Z,21.70
2018-09-18T22:06:46.187Z,21.60
2018-09-18T22:11:50.355Z,21.60
2018-09-18T22:16:54.291Z,21.50
2018-09-18T22:21:58.140Z,21.40
2018-09-18T22:27:02.371Z,21.30
2018-09-18T22:32:06.280Z,21.20
2018-09-18T22:37:10.131Z,21.10
2018-09-18T22:42:13.876Z,21.10
2018-09-18T22:47:17.978Z,21.00
2018-09-18T22:52:21.769Z,20.90
2018-09-18T22:57:25.588Z,20.90
2018-09-18T23:02:29.166Z,20.80
2018-09-18T23:07:33.012Z,20.70
2018-09-18T23:12:37.471Z,20.60
